Time;durP1;ratioP1;P1;durP2;ratioP2;P2;SDS_P1;SDS_P2;PMS_P1;PMS_P2;Temp;Humidity;BMP_temperature;BMP_pressure;BME280_temperature;BME280_humidity;BME280_pressure;Samples;Min_cycle;Max_cycle;Signal;HPM_P1;HPM_P2
2021/07/13 00:02:08;;;;;;;13.93;8.30;;;18.10;99.90;;;16.97;100.00;102006.69;4998506;28;20058;-76
2021/07/13 00:04:36;;;;;;;13.98;7.80;;;18.10;99.90;;;16.99;100.00;101909.03;4918101;28;20035;-76
2021/07/13 00:07:02;;;;;;;13.02;8.02;;;18.10;99.90;;;16.89;100.00;101950.38;4993996;28;20027;-76
2021/07/13 00:09:32;;;;;;;20.95;9.35;;;18.10;99.90;;;17.00;100.00;102004.75;4864754;28;20031;-76
2021/07/13 00:11:58;;;;;;;18.23;9.07;;;18.10;99.90;;;16.94;100.00;102002.41;4887811;28;20504;-76
2021/07/13 00:14:25;;;;;;;27.25;8.52;;;18.00;99.90;;;16.88;100.00;102031.97;4902984;28;20046;-76
2021/07/13 00:16:52;;;;;;;14.90;8.23;;;18.00;99.90;;;16.95;100.00;102040.50;4902265;28;20035;-76
2021/07/13 00:19:21;;;;;;;17.63;9.10;;;18.10;99.90;;;16.94;100.00;102017.50;5008166;28;20023;-76
2021/07/13 00:21:49;;;;;;;19.02;9.30;;;18.10;99.90;;;17.00;100.00;102062.41;4911724;28;20115;-76
2021/07/13 00:24:16;;;;;;;19.13;7.97;;;18.10;99.90;;;16.86;100.00;102054.28;4910066;28;20047;-76
2021/07/13 00:26:42;;;;;;;14.90;9.05;;;17.90;99.90;;;16.81;100.00;102020.81;4867732;28;20024;-76
2021/07/13 00:29:08;;;;;;;18.58;9.20;;;17.90;99.90;;;16.80;100.00;102098.91;4974287;28;20025;-76
2021/07/13 00:31:34;;;;;;;15.38;9.25;;;18.00;99.90;;;16.91;100.00;102077.06;4975540;28;20436;-76
2021/07/13 00:34:03;;;;;;;21.80;9.25;;;18.00;99.90;;;16.92;100.00;102100.06;4982126;28;20585;-76
2021/07/13 00:36:29;;;;;;;21.48;9.43;;;18.00;99.90;;;16.89;100.00;102097.56;4916630;28;20412;-76
2021/07/13 00:38:55;;;;;;;21.70;9.20;;;18.00;99.90;;;16.81;100.00;102113.06;4945202;28;20044;-76
2021/07/13 00:41:20;;;;;;;18.92;8.52;;;17.90;99.90;;;16.72;100.00;102076.25;4979909;28;20119;-76
2021/07/13 00:43:49;;;;;;;11.13;7.05;;;17.70;99.90;;;16.46;100.00;102048.31;4909463;28;20131;-76
2021/07/13 00:46:15;;;;;;;12.60;7.03;;;17.60;99.90;;;16.35;100.00;102048.88;4992978;28;20048;-76
2021/07/13 00:48:42;;;;;;;16.45;8.38;;;17.50;99.90;;;16.26;100.00;102042.19;4927697;28;20031;-76
2021/07/13 00:51:10;;;;;;;11.52;7.75;;;17.50;99.90;;;16.30;100.00;102041.09;4899256;28;20086;-76
2021/07/13 00:53:38;;;;;;;14.88;7.57;;;17.40;99.90;;;16.27;100.00;102081.13;4949292;28;22892;-76
2021/07/13 00:56:04;;;;;;;20.02;6.57;;;17.40;99.90;;;16.14;100.00;102080.88;4890302;28;20016;-76
2021/07/13 00:58:30;;;;;;;10.40;6.65;;;17.30;99.90;;;15.90;100.00;102055.50;4982330;28;20029;-76
2021/07/13 01:00:56;;;;;;;10.93;6.35;;;17.10;99.90;;;15.82;100.00;102101.00;4971752;28;20046;-76
2021/07/13 01:03:22;;;;;;;13.07;6.07;;;17.10;99.90;;;15.74;100.00;102119.97;4901999;28;20028;-76
2021/07/13 01:05:50;;;;;;;12.25;6.03;;;17.00;99.90;;;15.69;100.00;102113.09;4988869;28;20034;-76
2021/07/13 01:09:04;;;;;;;16.20;6.43;;;16.90;99.90;;;15.61;100.00;102161.22;4886485;28;20036;-76
2021/07/13 01:12:06;;;;;;;17.60;6.38;;;16.80;99.90;;;15.61;100.00;102177.16;4911391;28;20032;-76
2021/07/13 01:14:56;;;;;;;25.88;6.47;;;16.80;99.90;;;15.57;100.00;102194.13;4885324;28;20110;-76
2021/07/13 01:18:01;;;;;;;19.25;6.55;;;16.80;99.90;;;15.54;100.00;102176.56;4991138;28;20123;-76
2021/07/13 01:21:32;;;;;;;20.40;7.75;;;16.80;99.90;;;15.71;100.00;102251.97;4988179;28;20432;-76
2021/07/13 01:24:10;;;;;;;21.63;8.60;;;16.90;99.90;;;15.87;100.00;102271.63;5001759;28;20051;-76
2021/07/13 01:27:04;;;;;;;22.85;8.52;;;17.10;99.90;;;16.09;100.00;102359.22;4915705;28;20070;-76
2021/07/13 01:29:32;;;;;;;21.25;8.82;;;17.20;99.90;;;16.04;100.00;102424.97;4991752;28;20514;-76
2021/07/13 01:32:00;;;;;;;29.23;9.90;;;17.20;99.90;;;16.02;100.00;102433.94;4881109;28;20077;-76
2021/07/13 01:34:40;;;;;;;26.95;9.18;;;17.20;99.90;;;16.02;100.00;102495.91;4898592;28;20070;-76
2021/07/13 01:37:09;;;;;;;22.20;8.98;;;17.20;99.90;;;15.97;100.00;102535.09;4974951;28;20396;-76
2021/07/13 01:39:40;;;;;;;18.83;9.35;;;17.10;99.90;;;15.97;100.00;102514.69;4914099;28;20033;-76
2021/07/13 01:42:10;;;;;;;19.38;9.05;;;17.20;99.90;;;15.98;100.00;102544.78;4905771;28;20074;-76
2021/07/13 01:44:39;;;;;;;17.60;8.23;;;17.10;99.90;;;15.87;100.00;102537.25;4908262;28;20042;-76
2021/07/13 01:47:06;;;;;;;16.70;8.75;;;17.10;99.90;;;15.94;100.00;102599.00;4901417;28;20070;-76
2021/07/13 01:49:34;;;;;;;19.05;9.95;;;17.20;99.90;;;16.03;100.00;102581.81;4916076;28;20476;-76
2021/07/13 01:52:03;;;;;;;27.95;10.18;;;17.20;99.90;;;16.03;100.00;102582.69;4887024;28;20085;-76
2021/07/13 01:54:32;;;;;;;17.52;9.80;;;17.20;99.90;;;16.03;100.00;102593.31;4904101;28;20089;-76
2021/07/13 01:56:59;;;;;;;24.40;10.13;;;17.20;99.90;;;16.02;100.00;102628.75;4971226;28;20036;-76
2021/07/13 01:59:27;;;;;;;19.25;10.80;;;17.20;99.90;;;16.08;100.00;102665.72;4967398;28;21337;-76
2021/07/13 02:02:03;;;;;;;25.30;10.02;;;17.20;99.90;;;16.05;100.00;102668.50;4975898;28;20428;-76
2021/07/13 02:04:31;;;;;;;;;;;17.20;99.90;;;16.01;100.00;102696.13;4938796;28;20099;-76
2021/07/13 02:07:03;;;;;;;20.15;9.05;;;17.10;99.90;;;15.88;100.00;102671.81;4963133;28;20218;-76
2021/07/13 02:09:32;;;;;;;31.63;7.97;;;17.00;99.90;;;15.60;100.00;102661.31;4874958;28;20388;-76
2021/07/13 02:11:59;;;;;;;23.23;6.97;;;16.70;99.90;;;15.37;100.00;102670.97;4897859;28;20041;-76
2021/07/13 02:14:25;;;;;;;24.35;7.28;;;16.60;99.90;;;15.26;100.00;102637.78;4974334;28;20024;-76
2021/07/13 02:16:52;;;;;;;18.90;6.88;;;16.50;99.90;;;15.20;100.00;102585.78;4886458;28;20069;-76
2021/07/13 02:19:18;;;;;;;19.00;7.30;;;16.40;99.90;;;15.22;100.00;102626.41;4888388;28;20032;-76
2021/07/13 02:21:48;;;;;;;13.95;7.55;;;16.40;99.90;;;15.24;100.00;102554.72;4861045;28;20048;-76
2021/07/13 02:24:16;;;;;;;17.15;8.05;;;16.50;99.90;;;15.27;100.00;102587.31;4910684;28;20044;-77
2021/07/13 02:26:54;;;;;;;20.70;8.20;;;16.50;99.90;;;15.33;100.00;102596.81;4926546;28;20031;-76
2021/07/13 02:29:37;;;;;;;24.10;8.93;;;16.60;99.90;;;15.47;100.00;102731.72;4972247;28;20479;-77
2021/07/13 02:32:25;;;;;;;19.88;10.35;;;16.70;99.90;;;15.75;100.00;102769.69;4957033;28;20046;-76
2021/07/13 02:34:53;;;;;;;29.20;12.90;;;16.90;99.90;;;15.96;100.00;102761.84;4904784;28;20086;-76
2021/07/13 02:37:22;;;;;;;27.60;13.13;;;17.10;99.90;;;15.99;100.00;102761.75;4980741;28;20383;-76
2021/07/13 02:40:10;;;;;;;25.40;14.10;;;17.10;99.90;;;16.01;100.00;102791.78;5072345;27;20386;-77
2021/07/13 02:42:37;;;;;;;37.72;14.70;;;17.20;99.90;;;16.12;100.00;102809.97;5018404;28;20028;-76
2021/07/13 02:45:06;;;;;;;33.97;15.18;;;17.20;99.90;;;16.11;100.00;102870.25;5046555;28;20021;-77
2021/07/13 02:47:32;;;;;;;25.30;14.95;;;17.20;99.90;;;16.07;100.00;102862.41;5017205;28;20476;-77
2021/07/13 02:50:04;;;;;;;28.88;15.02;;;17.20;99.90;;;16.08;100.00;102857.06;5004174;28;20044;-76
2021/07/13 02:52:32;;;;;;;40.00;15.98;;;17.20;99.90;;;16.08;100.00;102926.16;5018216;28;20052;-76
2021/07/13 02:55:13;;;;;;;22.50;13.10;;;17.20;99.90;;;15.95;100.00;102928.34;5009755;28;20107;-77
2021/07/13 02:57:40;;;;;;;28.58;13.60;;;17.00;99.90;;;15.81;100.00;102836.78;5009749;28;20419;-77
2021/07/13 03:00:11;;;;;;;21.90;12.68;;;17.00;99.90;;;15.73;100.00;102760.91;5011342;28;20029;-77
2021/07/13 03:02:41;;;;;;;25.00;12.18;;;16.90;99.90;;;15.66;100.00;102747.84;5012832;28;20021;-77
2021/07/13 03:05:28;;;;;;;19.13;11.07;;;16.90;99.90;;;15.63;100.00;102722.28;4991674;28;20063;-76
2021/07/13 03:07:55;;;;;;;30.33;11.38;;;16.90;99.90;;;15.63;100.00;102809.91;5010677;28;20060;-76
2021/07/13 03:10:25;;;;;;;21.20;11.50;;;16.90;99.90;;;15.68;100.00;102691.13;5002421;28;20056;-76
2021/07/13 03:12:54;;;;;;;23.58;11.93;;;16.90;99.90;;;15.73;100.00;102739.66;4979931;28;20034;-76
2021/07/13 03:15:30;;;;;;;34.00;11.50;;;17.00;99.90;;;15.75;100.00;102728.97;5029091;28;20025;-76
2021/07/13 03:17:58;;;;;;;25.60;10.75;;;16.90;99.90;;;15.70;100.00;102729.13;5026530;28;20112;-77
2021/07/13 03:20:28;;;;;;;25.33;11.98;;;16.90;99.90;;;15.73;100.00;102737.00;5020321;28;20060;-76
2021/07/13 03:22:56;;;;;;;28.40;11.70;;;17.00;99.90;;;15.85;100.00;102790.59;5025655;28;20027;-77
2021/07/13 03:25:35;;;;;;;29.10;11.10;;;17.10;99.90;;;15.91;100.00;102721.28;5026113;28;20109;-77
2021/07/13 03:28:04;;;;;;;31.63;10.75;;;17.10;99.90;;;15.92;100.00;102769.06;5025786;28;20483;-76
2021/07/13 03:30:31;;;;;;;28.77;15.70;;;17.10;99.90;;;16.02;100.00;102849.28;5011502;28;20433;-77
2021/07/13 03:32:59;;;;;;;32.88;16.33;;;17.40;99.90;;;16.35;100.00;102764.81;5013331;28;20024;-77
2021/07/13 03:35:26;;;;;;;27.95;14.93;;;17.50;99.90;;;16.42;100.00;103012.69;5020580;28;20064;-77
2021/07/13 03:37:53;;;;;;;38.30;14.88;;;17.20;99.90;;;16.40;100.00;102935.63;5030328;28;20049;-77
2021/07/13 03:40:22;;;;;;;29.20;16.75;;;17.60;99.90;;;16.52;100.00;102899.78;5018477;28;20038;-77
2021/07/13 03:42:50;;;;;;;34.85;19.52;;;17.70;99.90;;;16.68;100.00;102910.69;5009512;28;20587;-77
2021/07/13 03:45:17;;;;;;;35.50;19.65;;;17.90;99.90;;;16.81;100.00;102905.81;4997270;28;20367;-77
2021/07/13 03:47:56;;;;;;;38.97;20.58;;;18.00;99.90;;;17.01;100.00;102852.66;5035922;28;20025;-77
2021/07/13 03:50:26;;;;;;;43.15;21.65;;;18.20;99.90;;;17.18;100.00;102877.75;5012841;28;20053;-77
2021/07/13 03:52:53;;;;;;;42.70;24.08;;;18.30;99.90;;;17.40;100.00;102947.81;4997867;28;20056;-77
2021/07/13 03:55:21;;;;;;;51.67;23.52;;;18.50;99.90;;;17.48;100.00;102872.09;5013586;28;20048;-77
2021/07/13 03:57:48;;;;;;;47.85;24.67;;;18.60;99.90;;;17.54;100.00;102933.13;5018204;28;20030;-77
2021/07/13 04:00:17;;;;;;;46.97;25.88;;;18.60;99.90;;;17.66;100.00;102891.75;5022220;28;20580;-76
2021/07/13 04:02:44;;;;;;;51.08;24.50;;;18.70;99.90;;;17.73;100.00;102923.44;5003306;28;20539;-77
2021/07/13 04:05:12;;;;;;;40.78;23.67;;;18.80;99.90;;;17.81;100.00;103069.66;4969435;28;20025;-77
2021/07/13 04:07:39;;;;;;;47.35;22.95;;;18.80;99.90;;;17.81;100.00;102963.91;4963419;28;20017;-76
2021/07/13 04:10:10;;;;;;;35.17;19.60;;;18.80;99.90;;;17.77;100.00;102966.78;5017777;28;20033;-77
2021/07/13 04:12:36;;;;;;;39.28;20.05;;;18.80;99.90;;;17.77;100.00;102942.78;5002255;28;20048;-77
2021/07/13 04:15:08;;;;;;;35.25;18.80;;;18.90;99.90;;;17.87;100.00;103052.59;5009667;28;20020;-76
2021/07/13 04:17:34;;;;;;;39.33;18.52;;;18.90;99.90;;;17.90;100.00;103044.44;4990263;28;20037;-77
2021/07/13 04:20:00;;;;;;;36.08;18.33;;;19.00;99.90;;;17.91;100.00;102955.59;4977551;28;20032;-77
2021/07/13 04:22:26;;;;;;;31.13;17.60;;;19.00;99.90;;;17.85;100.00;102985.16;5013680;28;20459;-76
2021/07/13 04:24:52;;;;;;;41.33;17.90;;;19.00;99.90;;;18.01;100.00;102978.22;4960907;28;20123;-77
2021/07/13 04:27:20;;;;;;;32.42;18.83;;;19.20;99.90;;;18.13;100.00;102972.38;4979508;28;20037;-76
2021/07/13 04:29:48;;;;;;;34.53;17.98;;;19.30;99.90;;;18.21;100.00;103167.59;4986957;28;20403;-77
2021/07/13 04:32:14;;;;;;;34.45;16.98;;;19.30;99.90;;;18.29;100.00;103145.06;4997148;28;20456;-76
2021/07/13 04:34:40;;;;;;;35.95;17.45;;;19.40;99.90;;;18.32;100.00;103118.28;4979674;28;20441;-77
2021/07/13 04:37:06;;;;;;;35.28;18.05;;;19.50;99.90;;;18.48;100.00;103130.03;4986835;28;20056;-77
2021/07/13 04:39:32;;;;;;;32.38;18.40;;;19.70;99.90;;;18.62;100.00;103095.66;5045146;28;20085;-77
2021/07/13 04:41:58;;;;;;;28.63;16.25;;;19.70;99.90;;;18.71;100.00;103093.50;4955946;28;20152;-77
2021/07/13 04:44:24;;;;;;;30.20;17.45;;;19.90;99.90;;;18.91;100.00;103074.84;4983536;28;20056;-77
2021/07/13 04:46:52;;;;;;;32.42;17.95;;;20.30;99.90;;;19.39;100.00;103126.94;4998768;28;20122;-77
2021/07/13 04:49:18;;;;;;;32.28;16.60;;;21.20;99.90;;;20.42;100.00;103055.16;5002874;28;20113;-77
2021/07/13 04:51:44;;;;;;;21.75;13.70;;;22.00;99.90;;;20.95;100.00;102832.84;5006100;28;20037;-77
2021/07/13 04:54:10;;;;;;;27.02;13.57;;;22.50;99.90;;;21.20;99.84;103086.81;4994192;28;20120;-77
2021/07/13 04:56:36;;;;;;;22.50;13.15;;;23.00;99.90;;;21.91;96.90;103033.66;4974573;28;20040;-77
2021/07/13 04:59:02;;;;;;;17.45;11.77;;;23.50;99.90;;;22.31;93.74;102810.38;4987096;28;20072;-77
2021/07/13 05:01:31;;;;;;;24.80;12.88;;;24.00;99.90;;;22.98;92.03;102895.63;4997380;28;20029;-77
2021/07/13 05:03:57;;;;;;;21.98;11.93;;;24.50;99.90;;;23.62;87.00;102697.75;4973273;28;20071;-77
2021/07/13 05:06:23;;;;;;;16.58;11.07;;;24.80;99.90;;;23.57;86.80;102600.44;4992383;28;20037;-77
2021/07/13 05:08:49;;;;;;;15.07;11.23;;;24.90;99.90;;;23.67;85.35;102557.56;4992715;28;20487;-77
2021/07/13 05:11:15;;;;;;;17.92;11.57;;;25.30;99.90;;;24.20;84.69;102576.97;4986265;28;20040;-77
2021/07/13 05:13:41;;;;;;;23.98;11.10;;;25.20;99.90;;;22.86;88.13;102432.66;4969012;28;20033;-77
2021/07/13 05:16:07;;;;;;;15.13;10.77;;;25.00;99.90;;;23.64;86.86;102515.66;5003014;28;20092;-77
2021/07/13 05:18:36;;;;;;;18.23;10.65;;;25.40;99.90;;;24.38;82.63;102490.41;4993597;28;20079;-76
2021/07/13 05:21:05;;;;;;;17.10;10.52;;;26.00;99.90;;;25.15;80.63;102542.66;4992624;28;20037;-77
2021/07/13 05:23:33;;;;;;;13.05;10.27;;;27.10;99.90;;;26.01;76.06;102528.59;5029297;28;20485;-77
2021/07/13 05:25:59;;;;;;;15.23;10.15;;;26.90;99.90;;;24.35;79.90;102348.84;5021383;28;20051;-77
2021/07/13 05:28:25;;;;;;;12.40;9.68;;;26.80;99.90;;;25.29;78.89;102474.22;5003170;28;20033;-77
2021/07/13 05:30:53;;;;;;;12.80;10.07;;;27.40;99.90;;;26.37;74.65;102521.88;4979813;28;20390;-77
2021/07/13 05:33:19;;;;;;;15.60;10.00;;;28.40;99.90;;;27.03;71.80;102532.38;5031898;28;20593;-77
2021/07/13 05:35:45;;;;;;;11.75;9.27;;;28.90;99.90;;;26.86;72.20;108426.16;4974389;28;20041;-77
2021/07/13 05:38:12;;;;;;;10.70;8.68;;;29.10;99.90;;;27.41;70.02;103907.84;5021001;28;20091;-77
2021/07/13 05:40:39;;;;;;;14.05;8.90;;;29.40;99.90;;;27.71;67.73;103699.13;5021744;28;20301;-77
2021/07/13 05:43:07;;;;;;;11.23;8.55;;;28.60;99.90;;;26.18;72.62;103317.25;5004628;28;20026;-76
2021/07/13 05:45:33;;;;;;;15.18;9.32;;;28.20;99.90;;;26.90;72.02;103023.69;5012528;28;20508;-77
2021/07/13 05:47:59;;;;;;;14.15;8.75;;;28.30;99.90;;;27.02;69.85;103049.72;4995348;28;20045;-77
2021/07/13 05:50:25;;;;;;;19.88;8.82;;;28.80;99.90;;;27.45;69.29;102856.00;5033008;28;20501;-77
2021/07/13 05:52:52;;;;;;;12.30;8.07;;;29.50;99.90;;;27.79;66.36;102607.66;4998110;28;20030;-78
2021/07/13 05:55:18;;;;;;;11.60;8.93;;;29.40;99.90;;;28.17;65.64;102568.97;5004932;28;20041;-77
2021/07/13 05:57:44;;;;;;;14.05;8.55;;;29.20;99.90;;;27.59;66.87;102452.53;5006365;28;20520;-78
2021/07/13 06:00:12;;;;;;;11.80;8.25;;;29.10;99.90;;;27.58;66.59;102399.41;4996865;28;20061;-77
2021/07/13 06:02:38;;;;;;;12.63;8.40;;;29.20;99.90;;;27.91;68.44;102427.06;4995076;28;20547;-77
2021/07/13 06:05:05;;;;;;;10.95;8.15;;;29.40;99.90;;;27.65;68.44;102387.03;5003700;28;20041;-77
2021/07/13 06:07:31;;;;;;;13.77;8.13;;;30.10;99.90;;;29.10;64.20;102395.72;4996465;28;20034;-77
2021/07/13 06:09:57;;;;;;;13.30;7.57;;;29.90;99.90;;;26.94;68.33;102303.47;4979107;28;20021;-77
2021/07/13 06:12:23;;;;;;;15.07;7.75;;;29.00;99.90;;;27.27;68.52;102475.28;5020236;28;20029;-77
2021/07/13 06:14:49;;;;;;;12.85;7.97;;;;;;;26.42;71.89;102300.06;4969003;28;20064;-76
2021/07/13 06:17:15;;;;;;;9.57;8.30;;;26.70;99.90;;;24.63;78.84;102174.31;5010939;28;20037;-76
2021/07/13 06:19:41;;;;;;;10.90;8.32;;;26.00;99.90;;;24.34;80.04;102142.53;4985108;28;20036;-76
2021/07/13 06:22:07;;;;;;;12.20;8.45;;;25.10;99.90;;;23.52;82.80;102059.53;5001944;28;20039;-76
2021/07/13 06:24:33;;;;;;;11.68;8.90;;;24.40;99.90;;;23.20;85.83;102073.72;5000244;28;20026;-76
2021/07/13 06:26:59;;;;;;;12.23;8.93;;;24.70;99.90;;;24.22;82.40;102190.16;5002285;28;20036;-76
2021/07/13 06:29:25;;;;;;;15.95;9.30;;;25.50;99.90;;;25.00;77.53;102133.47;5009152;28;20049;-76
2021/07/13 06:31:52;;;;;;;11.02;8.25;;;26.10;99.90;;;25.57;75.66;102184.22;4965756;28;20474;-76
2021/07/13 06:34:18;;;;;;;13.05;8.32;;;26.30;99.90;;;25.64;74.82;102133.28;4969976;28;20121;-76
2021/07/13 06:36:44;;;;;;;12.32;8.32;;;26.20;99.90;;;25.35;76.94;102082.75;4977261;28;20033;-77
2021/07/13 06:40:17;;;;;;;11.52;8.60;;;26.50;99.90;;;25.78;74.61;102175.19;5067194;27;20409;-77
2021/07/13 06:42:44;;;;;;;10.30;8.02;;;27.70;99.90;;;27.44;69.74;102205.13;5077522;28;20409;-77
2021/07/13 06:45:18;;;;;;;13.07;7.63;;;29.10;99.90;;;29.30;62.40;102282.47;5053627;28;20014;-76
2021/07/13 06:47:44;;;;;;;8.98;6.63;;;30.00;99.90;;;30.01;58.29;103995.41;5050538;28;20517;-75
2021/07/13 06:50:11;;;;;;;12.15;7.47;;;30.10;99.90;;;29.41;58.94;103093.53;5044449;28;20029;-75
2021/07/13 06:52:37;;;;;;;10.70;6.72;;;30.40;99.90;;;29.19;57.21;102822.50;5022025;28;20077;-75
2021/07/13 06:55:07;;;;;;;9.23;6.22;;;30.60;99.90;;;29.96;58.09;102761.75;5038339;28;20452;-75
2021/07/13 06:57:33;;;;;;;8.05;6.20;;;31.00;99.90;;;30.11;56.30;102590.97;5037199;28;20117;-74
2021/07/13 06:59:59;;;;;;;11.25;7.15;;;30.50;99.90;;;29.74;57.46;102392.91;5028133;28;20040;-75
2021/07/13 07:02:28;;;;;;;9.80;6.53;;;31.00;99.90;;;30.37;55.66;102362.81;5061345;28;20052;-75
2021/07/13 07:04:56;;;;;;;8.68;6.93;;;30.40;99.90;;;29.68;59.32;102333.78;5037393;28;20120;-76
2021/07/13 07:07:22;;;;;;;11.65;6.45;;;30.50;99.90;;;30.15;56.07;102336.16;5038510;28;20053;-75
2021/07/13 07:09:48;;;;;;;7.00;6.18;;;31.00;99.90;;;30.57;55.06;102321.78;5054685;28;20227;-75
2021/07/13 07:12:14;;;;;;;12.38;6.47;;;31.00;99.90;;;29.67;55.38;102769.13;5037507;28;20013;-75
2021/07/13 07:14:40;;;;;;;9.48;6.10;;;30.50;99.90;;;30.41;55.11;103361.63;5038120;28;20037;-75
2021/07/13 07:17:06;;;;;;;11.13;5.88;;;31.20;99.90;;;31.02;51.69;102731.28;5025463;28;20108;-75
2021/07/13 07:19:32;;;;;;;8.43;5.90;;;31.40;99.90;;;31.48;52.42;102476.91;5030207;28;20134;-75
2021/07/13 07:21:58;;;;;;;6.45;5.55;;;32.20;99.90;;;32.26;47.79;102815.41;5053133;28;20573;-75
2021/07/13 07:24:24;;;;;;;6.30;5.63;;;31.40;99.90;;;30.54;50.98;102558.56;5026280;28;20026;-74
2021/07/13 07:26:50;;;;;;;8.40;5.60;;;30.50;99.90;;;29.97;54.49;102146.16;5043882;28;20025;-75
2021/07/13 07:29:16;;;;;;;8.88;5.85;;;30.30;99.90;;;29.54;55.42;102622.91;5052946;28;20035;-76
2021/07/13 07:31:43;;;;;;;8.77;5.70;;;28.80;99.90;;;27.59;63.53;102318.13;5017567;28;20043;-75
2021/07/13 07:34:09;;;;;;;6.50;5.57;;;28.90;99.90;;;29.06;59.14;102291.22;5045699;28;20029;-75
2021/07/13 07:36:35;;;;;;;6.70;5.88;;;29.60;99.90;;;29.80;52.66;102216.66;5040668;28;20033;-75
2021/07/13 07:39:01;;;;;;;10.82;5.82;;;29.20;99.90;;;28.51;57.10;102056.50;5018370;28;20080;-75
2021/07/13 07:41:27;;;;;;;6.05;5.38;;;29.50;99.90;;;29.89;54.56;102136.09;5028239;28;20437;-74
2021/07/13 07:43:53;;;;;;;8.40;5.60;;;30.40;99.90;;;31.02;52.58;102781.09;5034043;28;20124;-76
2021/07/13 07:46:19;;;;;;;5.60;4.97;;;30.90;99.90;;;30.31;50.69;102366.16;5036162;28;20484;-75
2021/07/13 07:48:45;;;;;;;5.60;4.70;;;30.70;99.90;;;30.78;50.75;102256.91;5045429;28;22440;-75
2021/07/13 07:51:11;;;;;;;7.40;4.97;;;30.20;99.90;;;30.01;52.91;102183.69;4997287;28;20032;-75
2021/07/13 07:53:37;;;;;;;10.30;5.00;;;29.60;99.90;;;29.42;55.90;102085.03;5038963;28;20156;-75
2021/07/13 07:56:03;;;;;;;10.77;5.00;;;30.20;99.90;;;30.52;52.01;102114.84;5020200;28;20116;-75
2021/07/13 07:58:29;;;;;;;6.18;4.50;;;31.10;99.90;;;30.66;49.85;102057.94;5037253;28;20033;-75
2021/07/13 08:00:55;;;;;;;6.80;4.15;;;30.90;99.90;;;30.96;46.39;102060.97;5031497;28;20476;-75
2021/07/13 08:03:21;;;;;;;6.22;3.90;;;30.90;99.80;;;31.04;45.83;101987.53;5015616;28;20031;-75
2021/07/13 08:05:51;;;;;;;4.38;3.92;;;30.90;99.50;;;31.48;46.58;102021.53;5006922;28;20025;-75
2021/07/13 08:08:18;;;;;;;5.75;3.90;;;31.20;99.30;;;31.41;47.84;101985.13;5022708;28;20048;-75
2021/07/13 08:10:44;;;;;;;6.10;4.15;;;31.00;98.30;;;30.69;47.29;101880.03;5037655;28;20025;-74
2021/07/13 08:13:10;;;;;;;4.47;3.58;;;30.40;99.60;;;30.22;49.42;101870.84;5016903;28;20029;-74
2021/07/13 08:15:36;;;;;;;6.43;3.67;;;30.20;99.90;;;30.04;48.72;101849.34;5006529;28;20095;-75
2021/07/13 08:18:02;;;;;;;4.75;3.50;;;30.10;99.60;;;29.77;50.65;101798.13;5036786;28;20392;-74
2021/07/13 08:20:28;;;;;;;5.88;3.10;;;30.40;99.90;;;30.13;47.70;101814.00;5013650;28;20433;-74
2021/07/13 08:22:54;;;;;;;3.92;3.40;;;30.30;98.70;;;29.84;47.78;101761.13;5039480;28;20086;-74
2021/07/13 08:25:20;;;;;;;4.22;3.70;;;30.40;99.40;;;30.21;48.38;101792.25;5038542;28;20040;-74
2021/07/13 08:27:48;;;;;;;5.90;3.47;;;30.80;97.70;;;29.61;49.25;101701.25;5022801;28;20079;-74
2021/07/13 08:30:15;;;;;;;3.55;3.25;;;30.30;99.70;;;29.32;52.65;101710.81;5013651;28;20055;-75
2021/07/13 08:32:42;;;;;;;4.38;3.70;;;29.90;99.10;;;28.22;54.24;101593.66;5012104;28;20038;-74
2021/07/13 08:35:11;;;;;;;4.68;3.75;;;29.50;99.90;;;28.74;56.06;101660.31;5015761;28;20433;-75
2021/07/13 08:37:37;;;;;;;4.30;3.80;;;30.10;99.90;;;29.42;52.46;101722.34;5017783;28;20022;-75
2021/07/13 08:40:09;;;;;;;4.97;3.90;;;30.10;99.90;;;29.17;52.35;101656.41;5039297;28;20509;-75
2021/07/13 08:42:37;;;;;;;4.03;3.38;;;29.30;99.90;;;28.04;54.01;101530.72;5036695;28;20401;-74
2021/07/13 08:45:10;;;;;;;4.90;3.65;;;29.20;99.90;;;28.89;53.40;101642.34;5037435;28;20044;-74
2021/07/13 08:47:39;;;;;;;7.22;4.53;;;29.70;99.90;;;29.28;53.21;101654.38;4995425;28;20494;-74
2021/07/13 08:50:07;;;;;;;4.88;3.58;;;30.10;98.90;;;29.07;50.58;101587.94;5021569;28;20478;-74
2021/07/13 08:52:34;;;;;;;4.75;3.38;;;30.50;99.40;;;30.29;49.33;101715.34;5038015;28;20036;-74
2021/07/13 08:55:04;;;;;;;5.72;4.10;;;30.80;99.30;;;29.61;51.81;101623.44;5037560;28;20038;-75
2021/07/13 08:57:30;;;;;;;3.90;3.28;;;30.30;99.40;;;29.28;49.85;101573.00;5013091;28;20029;-74
2021/07/13 08:59:56;;;;;;;7.20;3.63;;;29.50;99.90;;;28.07;52.51;101642.19;5014923;28;20405;-74
2021/07/13 09:02:35;;;;;;;4.35;3.50;;;28.80;99.90;;;27.90;57.47;101614.22;4982617;28;20045;-74
2021/07/13 09:05:30;;;;;;;4.45;3.45;;;29.20;99.90;;;28.51;50.85;101647.41;4984225;28;20030;-74
2021/07/13 09:08:38;;;;;;;4.85;3.13;;;29.60;99.90;;;29.15;50.40;101679.31;4977182;28;20041;-74
2021/07/13 09:11:30;;;;;;;5.60;3.10;;;28.70;99.90;;;26.90;56.87;101446.25;5000487;28;20029;-74
2021/07/13 09:15:04;;;;;;;4.75;3.10;;;28.50;99.90;;;28.24;52.50;101591.63;4974119;28;20500;-73
2021/07/13 09:18:23;;;;;;;4.30;3.28;;;28.80;99.90;;;28.23;54.07;101552.06;4980070;28;20041;-74
2021/07/13 09:21:45;;;;;;;3.70;2.90;;;28.70;99.90;;;28.06;52.49;101507.88;4978113;28;20144;-73
2021/07/13 09:25:00;;;;;;;4.18;3.05;;;28.60;99.90;;;27.83;53.05;101477.84;4997949;28;20147;-74
2021/07/13 09:28:33;;;;;;;2.95;2.65;;;28.20;99.90;;;27.40;53.07;101433.78;4995424;28;20136;-73
2021/07/13 09:31:48;;;;;;;3.38;3.08;;;27.80;99.90;;;27.02;55.05;101390.06;4968709;28;20048;-74
2021/07/13 09:35:17;;;;;;;3.22;2.92;;;27.70;99.90;;;27.15;56.78;101400.41;4977923;28;20559;-74
2021/07/13 09:38:21;;;;;;;6.07;3.00;;;27.60;99.90;;;26.55;58.23;101349.97;4987389;28;20045;-74
2021/07/13 09:42:02;;;;;;;5.25;2.97;;;27.20;99.90;;;26.85;59.38;101391.84;4988884;28;20054;-74
2021/07/13 09:45:25;;;;;;;5.20;2.55;;;27.90;99.90;;;27.56;54.84;101436.56;4980004;28;25376;-74
2021/07/13 09:48:37;;;;;;;4.28;2.40;;;28.10;99.90;;;27.51;54.10;101406.44;4985510;28;20032;-74
2021/07/13 09:51:34;;;;;;;3.25;2.47;;;28.00;99.90;;;27.77;54.55;101427.94;5001154;28;20067;-74
2021/07/13 09:54:51;;;;;;;3.58;2.70;;;28.50;99.90;;;28.15;51.12;101443.75;4979167;28;20120;-74
2021/07/13 09:58:53;;;;;;;2.70;2.20;;;29.00;98.80;;;28.69;49.47;101479.25;5030773;28;20041;-73
2021/07/13 10:02:16;;;;;;;3.40;2.88;;;29.30;99.40;;;28.86;49.47;101717.75;4982973;28;20476;-74
2021/07/13 10:06:10;;;;;;;2.67;2.35;;;28.90;99.30;;;27.53;53.05;101461.22;4982344;28;20095;-74
2021/07/13 10:10:14;;;;;;;3.50;2.42;;;28.10;99.90;;;27.14;54.06;101413.06;5010085;28;20052;-74
2021/07/13 10:13:34;;;;;;;3.80;2.95;;;27.60;99.90;;;27.23;56.10;101423.94;4977394;28;20037;-74
2021/07/13 10:16:46;;;;;;;3.92;2.88;;;28.30;99.90;;;28.49;51.80;101515.84;4985079;28;20079;-73
2021/07/13 10:20:17;;;;;;;7.57;3.10;;;28.90;99.90;;;28.52;51.21;101486.56;4960540;28;20084;-74
2021/07/13 10:23:39;;;;;;;5.72;2.70;;;29.00;99.90;;;28.84;53.93;101482.94;4991247;28;20439;-73
2021/07/13 10:26:59;;;;;;;3.35;2.88;;;29.30;98.60;;;28.08;50.39;101396.69;4974103;28;20120;-74
2021/07/13 10:30:20;;;;;;;2.85;2.53;;;28.50;99.30;;;28.13;51.70;101407.88;4996293;28;20044;-74
2021/07/13 10:33:59;;;;;;;4.22;2.72;;;28.60;99.90;;;27.87;50.45;101357.47;4988141;28;20421;-73
2021/07/13 10:37:48;;;;;;;3.50;3.20;;;28.50;99.90;;;27.96;52.85;102119.72;4993707;28;20036;-74